sensor_id;sensor_type;location;lat;lon;timestamp;temperature;humidity
47590;DHT22;33316;52.298;9.056;2022-09-27T00:01:49;12.10;90.70
47590;DHT22;33316;52.298;9.056;2022-09-27T00:04:15;12.10;90.40
47590;DHT22;33316;52.298;9.056;2022-09-27T00:06:42;12.10;90.30
47590;DHT22;33316;52.298;9.056;2022-09-27T00:09:09;12.10;90.40
47590;DHT22;33316;52.298;9.056;2022-09-27T00:11:37;12.10;90.40
47590;DHT22;33316;52.298;9.056;2022-09-27T00:14:07;12.10;90.40
47590;DHT22;33316;52.298;9.056;2022-09-27T00:16:36;12.10;90.40
47590;DHT22;33316;52.298;9.056;2022-09-27T00:19:04;12.10;90.50
47590;DHT22;33316;52.298;9.056;2022-09-27T00:21:32;12.10;90.50
47590;DHT22;33316;52.298;9.056;2022-09-27T00:23:59;12.20;90.50
47590;DHT22;33316;52.298;9.056;2022-09-27T00:26:26;12.20;90.50
47590;DHT22;33316;52.298;9.056;2022-09-27T00:28:53;12.10;90.50
47590;DHT22;33316;52.298;9.056;2022-09-27T00:31:23;12.20;90.50
47590;DHT22;33316;52.298;9.056;2022-09-27T00:33:52;12.10;90.50
47590;DHT22;33316;52.298;9.056;2022-09-27T00:36:20;12.20;90.50
47590;DHT22;33316;52.298;9.056;2022-09-27T00:38:48;12.20;90.50
47590;DHT22;33316;52.298;9.056;2022-09-27T00:41:16;12.20;90.50
47590;DHT22;33316;52.298;9.056;2022-09-27T00:43:46;12.20;90.50
47590;DHT22;33316;52.298;9.056;2022-09-27T00:46:18;12.20;90.60
47590;DHT22;33316;52.298;9.056;2022-09-27T00:48:48;12.20;90.60
47590;DHT22;33316;52.298;9.056;2022-09-27T00:51:19;12.20;90.60
47590;DHT22;33316;52.298;9.056;2022-09-27T00:53:50;12.20;90.60
47590;DHT22;33316;52.298;9.056;2022-09-27T00:56:21;12.20;90.60
47590;DHT22;33316;52.298;9.056;2022-09-27T00:58:49;12.20;90.60
47590;DHT22;33316;52.298;9.056;2022-09-27T01:01:17;12.20;90.70
47590;DHT22;33316;52.298;9.056;2022-09-27T01:03:50;12.20;90.60
47590;DHT22;33316;52.298;9.056;2022-09-27T01:06:20;12.20;90.60
47590;DHT22;33316;52.298;9.056;2022-09-27T01:08:46;12.20;90.60
47590;DHT22;33316;52.298;9.056;2022-09-27T01:11:21;12.20;90.70
47590;DHT22;33316;52.298;9.056;2022-09-27T01:17:23;12.20;90.80
47590;DHT22;33316;52.298;9.056;2022-09-27T01:23:11;12.20;90.80
47590;DHT22;33316;52.298;9.056;2022-09-27T01:25:55;12.20;90.80
47590;DHT22;33316;52.298;9.056;2022-09-27T01:28:38;12.20;90.80
47590;DHT22;33316;52.298;9.056;2022-09-27T01:31:18;12.20;90.90
47590;DHT22;33316;52.298;9.056;2022-09-27T01:33:52;12.20;90.90
47590;DHT22;33316;52.298;9.056;2022-09-27T01:36:33;12.20;90.90
47590;DHT22;33316;52.298;9.056;2022-09-27T01:39:13;12.20;91.30
47590;DHT22;33316;52.298;9.056;2022-09-27T01:41:52;12.20;91.00
47590;DHT22;33316;52.298;9.056;2022-09-27T01:44:28;12.20;90.90
47590;DHT22;33316;52.298;9.056;2022-09-27T01:47:01;12.20;91.00
47590;DHT22;33316;52.298;9.056;2022-09-27T01:49:33;12.20;91.00
47590;DHT22;33316;52.298;9.056;2022-09-27T01:52:02;12.20;91.00
47590;DHT22;33316;52.298;9.056;2022-09-27T01:54:34;12.20;91.00
47590;DHT22;33316;52.298;9.056;2022-09-27T01:57:05;12.20;91.00
47590;DHT22;33316;52.298;9.056;2022-09-27T01:59:35;12.20;91.00
47590;DHT22;33316;52.298;9.056;2022-09-27T02:02:08;12.20;91.20
47590;DHT22;33316;52.298;9.056;2022-09-27T02:04:39;12.20;91.00
47590;DHT22;33316;52.298;9.056;2022-09-27T02:07:11;12.20;91.00
47590;DHT22;33316;52.298;9.056;2022-09-27T02:09:43;12.20;91.10
47590;DHT22;33316;52.298;9.056;2022-09-27T02:12:12;12.20;91.10
47590;DHT22;33316;52.298;9.056;2022-09-27T02:14:43;12.20;91.10
47590;DHT22;33316;52.298;9.056;2022-09-27T02:17:15;12.20;91.10
47590;DHT22;33316;52.298;9.056;2022-09-27T02:19:53;12.20;91.30
47590;DHT22;33316;52.298;9.056;2022-09-27T02:22:29;12.20;91.10
47590;DHT22;33316;52.298;9.056;2022-09-27T02:24:59;12.20;91.10
47590;DHT22;33316;52.298;9.056;2022-09-27T02:27:33;12.20;91.20
47590;DHT22;33316;52.298;9.056;2022-09-27T02:30:04;12.20;91.30
47590;DHT22;33316;52.298;9.056;2022-09-27T02:32:33;12.20;91.30
47590;DHT22;33316;52.298;9.056;2022-09-27T02:35:02;12.20;91.30
47590;DHT22;33316;52.298;9.056;2022-09-27T02:37:31;12.20;91.30
47590;DHT22;33316;52.298;9.056;2022-09-27T02:39:58;12.20;91.30
47590;DHT22;33316;52.298;9.056;2022-09-27T02:42:25;12.20;91.40
47590;DHT22;33316;52.298;9.056;2022-09-27T02:44:52;12.20;91.40
47590;DHT22;33316;52.298;9.056;2022-09-27T02:47:41;12.20;91.40
47590;DHT22;33316;52.298;9.056;2022-09-27T02:50:22;12.20;91.40
47590;DHT22;33316;52.298;9.056;2022-09-27T02:52:57;12.20;91.40
47590;DHT22;33316;52.298;9.056;2022-09-27T02:55:39;12.20;91.40
47590;DHT22;33316;52.298;9.056;2022-09-27T02:58:19;12.10;91.40
47590;DHT22;33316;52.298;9.056;2022-09-27T03:00:55;12.10;91.30
47590;DHT22;33316;52.298;9.056;2022-09-27T03:03:29;12.20;91.40
47590;DHT22;33316;52.298;9.056;2022-09-27T03:06:02;12.10;91.30
47590;DHT22;33316;52.298;9.056;2022-09-27T03:08:29;12.10;91.40
47590;DHT22;33316;52.298;9.056;2022-09-27T03:10:56;12.10;91.30
47590;DHT22;33316;52.298;9.056;2022-09-27T03:13:23;12.10;91.30
47590;DHT22;33316;52.298;9.056;2022-09-27T03:15:50;12.10;91.40
47590;DHT22;33316;52.298;9.056;2022-09-27T03:18:17;12.10;91.30
47590;DHT22;33316;52.298;9.056;2022-09-27T03:20:45;12.10;91.30
47590;DHT22;33316;52.298;9.056;2022-09-27T03:23:12;12.10;91.70
47590;DHT22;33316;52.298;9.056;2022-09-27T03:25:39;12.10;91.30
47590;DHT22;33316;52.298;9.056;2022-09-27T03:28:06;12.10;91.30
47590;DHT22;33316;52.298;9.056;2022-09-27T03:30:35;12.10;91.30
47590;DHT22;33316;52.298;9.056;2022-09-27T03:33:02;12.10;91.30
47590;DHT22;33316;52.298;9.056;2022-09-27T03:35:28;12.10;91.30
47590;DHT22;33316;52.298;9.056;2022-09-27T03:37:56;12.10;91.30
47590;DHT22;33316;52.298;9.056;2022-09-27T03:40:23;12.00;91.20
47590;DHT22;33316;52.298;9.056;2022-09-27T03:42:50;12.00;91.20
47590;DHT22;33316;52.298;9.056;2022-09-27T03:45:16;12.00;91.20
47590;DHT22;33316;52.298;9.056;2022-09-27T03:47:43;11.90;91.20
47590;DHT22;33316;52.298;9.056;2022-09-27T03:50:10;11.90;91.20
47590;DHT22;33316;52.298;9.056;2022-09-27T03:52:37;11.90;91.20
47590;DHT22;33316;52.298;9.056;2022-09-27T03:55:06;11.90;91.20
47590;DHT22;33316;52.298;9.056;2022-09-27T03:57:33;11.90;91.20
47590;DHT22;33316;52.298;9.056;2022-09-27T04:00:00;11.90;91.20
47590;DHT22;33316;52.298;9.056;2022-09-27T04:02:27;11.90;91.20
47590;DHT22;33316;52.298;9.056;2022-09-27T04:04:54;11.90;91.20
47590;DHT22;33316;52.298;9.056;2022-09-27T04:07:20;11.90;91.20
47590;DHT22;33316;52.298;9.056;2022-09-27T04:09:48;11.90;91.20
47590;DHT22;33316;52.298;9.056;2022-09-27T04:12:16;11.90;91.20
47590;DHT22;33316;52.298;9.056;2022-09-27T04:14:42;11.90;91.60
47590;DHT22;33316;52.298;9.056;2022-09-27T04:17:09;11.90;91.30
47590;DHT22;33316;52.298;9.056;2022-09-27T04:19:36;11.90;91.20
47590;DHT22;33316;52.298;9.056;2022-09-27T04:22:02;11.90;91.20
47590;DHT22;33316;52.298;9.056;2022-09-27T04:24:29;11.90;91.30
47590;DHT22;33316;52.298;9.056;2022-09-27T04:26:56;11.90;91.30
47590;DHT22;33316;52.298;9.056;2022-09-27T04:29:24;11.90;91.20
47590;DHT22;33316;52.298;9.056;2022-09-27T04:31:51;11.90;91.20
47590;DHT22;33316;52.298;9.056;2022-09-27T04:34:17;11.90;91.20
47590;DHT22;33316;52.298;9.056;2022-09-27T04:37:04;11.90;91.20
47590;DHT22;33316;52.298;9.056;2022-09-27T04:39:32;11.80;91.20
47590;DHT22;33316;52.298;9.056;2022-09-27T04:42:01;11.80;91.20
47590;DHT22;33316;52.298;9.056;2022-09-27T04:44:29;11.80;91.20
47590;DHT22;33316;52.298;9.056;2022-09-27T04:46:55;11.80;91.20
47590;DHT22;33316;52.298;9.056;2022-09-27T04:49:22;11.80;91.10
47590;DHT22;33316;52.298;9.056;2022-09-27T04:51:49;11.80;91.10
47590;DHT22;33316;52.298;9.056;2022-09-27T04:54:16;11.80;91.10
47590;DHT22;33316;52.298;9.056;2022-09-27T04:56:42;11.80;91.10
47590;DHT22;33316;52.298;9.056;2022-09-27T04:59:09;11.80;91.00
47590;DHT22;33316;52.298;9.056;2022-09-27T05:01:37;11.70;91.00
47590;DHT22;33316;52.298;9.056;2022-09-27T05:04:04;11.80;91.00
47590;DHT22;33316;52.298;9.056;2022-09-27T05:06:31;11.80;91.00
47590;DHT22;33316;52.298;9.056;2022-09-27T05:08:58;11.80;90.90
47590;DHT22;33316;52.298;9.056;2022-09-27T05:11:25;11.80;90.90
47590;DHT22;33316;52.298;9.056;2022-09-27T05:13:52;11.70;90.90
47590;DHT22;33316;52.298;9.056;2022-09-27T05:16:18;11.70;90.80
47590;DHT22;33316;52.298;9.056;2022-09-27T05:18:46;11.70;90.80
47590;DHT22;33316;52.298;9.056;2022-09-27T05:21:13;11.70;90.80
47590;DHT22;33316;52.298;9.056;2022-09-27T05:23:40;11.70;90.70
47590;DHT22;33316;52.298;9.056;2022-09-27T05:26:07;11.60;90.70
47590;DHT22;33316;52.298;9.056;2022-09-27T05:28:34;11.60;90.70
47590;DHT22;33316;52.298;9.056;2022-09-27T05:31:00;11.60;90.60
47590;DHT22;33316;52.298;9.056;2022-09-27T05:33:27;11.60;90.60
47590;DHT22;33316;52.298;9.056;2022-09-27T05:35:56;11.60;90.70
47590;DHT22;33316;52.298;9.056;2022-09-27T05:38:23;11.60;90.70
47590;DHT22;33316;52.298;9.056;2022-09-27T05:40:50;11.60;90.70
47590;DHT22;33316;52.298;9.056;2022-09-27T05:43:17;11.60;90.70
47590;DHT22;33316;52.298;9.056;2022-09-27T05:45:44;11.60;90.70
47590;DHT22;33316;52.298;9.056;2022-09-27T05:48:11;11.60;90.70
47590;DHT22;33316;52.298;9.056;2022-09-27T05:50:39;11.60;90.70
47590;DHT22;33316;52.298;9.056;2022-09-27T05:53:08;11.50;90.70
47590;DHT22;33316;52.298;9.056;2022-09-27T05:55:35;11.50;90.70
47590;DHT22;33316;52.298;9.056;2022-09-27T05:58:03;11.50;90.80
47590;DHT22;33316;52.298;9.056;2022-09-27T06:00:31;11.60;90.80
47590;DHT22;33316;52.298;9.056;2022-09-27T06:02:59;11.50;90.80
47590;DHT22;33316;52.298;9.056;2022-09-27T06:05:28;11.50;90.80
47590;DHT22;33316;52.298;9.056;2022-09-27T06:07:58;11.50;90.80
47590;DHT22;33316;52.298;9.056;2022-09-27T06:10:28;11.50;90.80
47590;DHT22;33316;52.298;9.056;2022-09-27T06:12:58;11.50;90.80
47590;DHT22;33316;52.298;9.056;2022-09-27T06:15:25;11.50;90.70
47590;DHT22;33316;52.298;9.056;2022-09-27T06:17:52;11.50;90.70
47590;DHT22;33316;52.298;9.056;2022-09-27T06:20:18;11.50;90.70
47590;DHT22;33316;52.298;9.056;2022-09-27T06:22:45;11.50;90.70
47590;DHT22;33316;52.298;9.056;2022-09-27T06:25:12;11.50;90.70
47590;DHT22;33316;52.298;9.056;2022-09-27T06:27:40;11.50;90.70
47590;DHT22;33316;52.298;9.056;2022-09-27T06:30:08;11.50;90.60
47590;DHT22;33316;52.298;9.056;2022-09-27T06:32:37;11.40;90.60
47590;DHT22;33316;52.298;9.056;2022-09-27T06:35:04;11.40;90.50
47590;DHT22;33316;52.298;9.056;2022-09-27T06:37:31;11.40;90.50
47590;DHT22;33316;52.298;9.056;2022-09-27T06:39:58;11.40;90.50
47590;DHT22;33316;52.298;9.056;2022-09-27T06:42:26;11.40;90.40
47590;DHT22;33316;52.298;9.056;2022-09-27T06:44:54;11.40;90.40
47590;DHT22;33316;52.298;9.056;2022-09-27T06:47:21;11.40;90.30
47590;DHT22;33316;52.298;9.056;2022-09-27T06:49:49;11.40;90.30
47590;DHT22;33316;52.298;9.056;2022-09-27T06:52:16;11.40;90.20
47590;DHT22;33316;52.298;9.056;2022-09-27T06:54:42;11.30;90.20
47590;DHT22;33316;52.298;9.056;2022-09-27T06:57:09;11.40;90.20
47590;DHT22;33316;52.298;9.056;2022-09-27T06:59:57;11.40;90.10
47590;DHT22;33316;52.298;9.056;2022-09-27T07:02:41;11.40;90.10
47590;DHT22;33316;52.298;9.056;2022-09-27T07:05:08;11.30;90.00
47590;DHT22;33316;52.298;9.056;2022-09-27T07:07:35;11.30;90.00
47590;DHT22;33316;52.298;9.056;2022-09-27T07:10:02;11.40;90.00
47590;DHT22;33316;52.298;9.056;2022-09-27T07:12:28;11.40;90.00
47590;DHT22;33316;52.298;9.056;2022-09-27T07:14:56;11.40;90.00
47590;DHT22;33316;52.298;9.056;2022-09-27T07:17:24;11.40;90.00
47590;DHT22;33316;52.298;9.056;2022-09-27T07:19:52;11.40;90.00
47590;DHT22;33316;52.298;9.056;2022-09-27T07:22:19;11.50;90.30
47590;DHT22;33316;52.298;9.056;2022-09-27T07:24:46;11.50;90.00
47590;DHT22;33316;52.298;9.056;2022-09-27T07:27:13;11.50;90.00
47590;DHT22;33316;52.298;9.056;2022-09-27T07:29:40;11.50;89.90
47590;DHT22;33316;52.298;9.056;2022-09-27T07:32:08;11.50;89.80
47590;DHT22;33316;52.298;9.056;2022-09-27T07:34:35;11.50;89.90
47590;DHT22;33316;52.298;9.056;2022-09-27T07:37:02;11.60;90.00
47590;DHT22;33316;52.298;9.056;2022-09-27T07:39:30;11.60;90.00
47590;DHT22;33316;52.298;9.056;2022-09-27T07:41:57;11.60;90.00
47590;DHT22;33316;52.298;9.056;2022-09-27T07:44:25;11.60;90.00
47590;DHT22;33316;52.298;9.056;2022-09-27T07:46:52;11.70;90.00
47590;DHT22;33316;52.298;9.056;2022-09-27T07:49:20;11.70;90.00
47590;DHT22;33316;52.298;9.056;2022-09-27T07:51:47;11.70;90.00
47590;DHT22;33316;52.298;9.056;2022-09-27T07:54:13;11.70;90.00
47590;DHT22;33316;52.298;9.056;2022-09-27T07:56:40;11.70;89.80
47590;DHT22;33316;52.298;9.056;2022-09-27T07:59:07;11.80;89.80
47590;DHT22;33316;52.298;9.056;2022-09-27T08:01:33;11.80;89.80
47590;DHT22;33316;52.298;9.056;2022-09-27T08:04:00;11.80;89.70
47590;DHT22;33316;52.298;9.056;2022-09-27T08:06:29;11.80;89.80
47590;DHT22;33316;52.298;9.056;2022-09-27T08:09:00;11.80;89.50
47590;DHT22;33316;52.298;9.056;2022-09-27T08:11:27;11.80;89.30
47590;DHT22;33316;52.298;9.056;2022-09-27T08:13:54;11.90;89.40
47590;DHT22;33316;52.298;9.056;2022-09-27T08:16:21;11.90;89.50
47590;DHT22;33316;52.298;9.056;2022-09-27T08:18:48;11.90;89.50
47590;DHT22;33316;52.298;9.056;2022-09-27T08:21:14;12.00;89.40
47590;DHT22;33316;52.298;9.056;2022-09-27T08:23:43;12.00;89.20
47590;DHT22;33316;52.298;9.056;2022-09-27T08:26:09;12.00;89.10
47590;DHT22;33316;52.298;9.056;2022-09-27T08:28:36;12.10;89.10
47590;DHT22;33316;52.298;9.056;2022-09-27T08:31:03;12.00;88.90
47590;DHT22;33316;52.298;9.056;2022-09-27T08:33:30;12.10;88.90
47590;DHT22;33316;52.298;9.056;2022-09-27T08:35:56;12.10;88.80
47590;DHT22;33316;52.298;9.056;2022-09-27T08:38:23;12.20;88.80
47590;DHT22;33316;52.298;9.056;2022-09-27T08:40:54;12.20;88.70
47590;DHT22;33316;52.298;9.056;2022-09-27T08:43:33;12.20;88.70
47590;DHT22;33316;52.298;9.056;2022-09-27T08:46:04;12.20;88.20
47590;DHT22;33316;52.298;9.056;2022-09-27T08:48:33;12.30;88.20
47590;DHT22;33316;52.298;9.056;2022-09-27T08:51:02;12.30;88.00
47590;DHT22;33316;52.298;9.056;2022-09-27T08:53:34;12.30;88.70
47590;DHT22;33316;52.298;9.056;2022-09-27T08:56:07;12.30;87.70
47590;DHT22;33316;52.298;9.056;2022-09-27T08:58:38;12.40;87.40
47590;DHT22;33316;52.298;9.056;2022-09-27T09:01:11;12.30;87.10
47590;DHT22;33316;52.298;9.056;2022-09-27T09:03:42;12.40;87.00
47590;DHT22;33316;52.298;9.056;2022-09-27T09:06:15;12.40;86.80
47590;DHT22;33316;52.298;9.056;2022-09-27T09:08:53;12.40;86.90
47590;DHT22;33316;52.298;9.056;2022-09-27T09:11:34;12.50;86.70
47590;DHT22;33316;52.298;9.056;2022-09-27T09:14:37;12.50;86.30
47590;DHT22;33316;52.298;9.056;2022-09-27T09:17:17;12.60;86.30
47590;DHT22;33316;52.298;9.056;2022-09-27T09:19:55;12.80;86.30
47590;DHT22;33316;52.298;9.056;2022-09-27T09:22:38;12.80;85.80
47590;DHT22;33316;52.298;9.056;2022-09-27T09:25:21;12.90;85.40
47590;DHT22;33316;52.298;9.056;2022-09-27T09:27:57;12.90;85.10
47590;DHT22;33316;52.298;9.056;2022-09-27T09:30:31;12.90;84.70
47590;DHT22;33316;52.298;9.056;2022-09-27T09:33:13;12.90;84.20
47590;DHT22;33316;52.298;9.056;2022-09-27T09:35:44;13.00;84.10
47590;DHT22;33316;52.298;9.056;2022-09-27T09:38:17;13.00;83.90
47590;DHT22;33316;52.298;9.056;2022-09-27T09:40:47;13.00;83.80
47590;DHT22;33316;52.298;9.056;2022-09-27T09:43:18;13.10;83.80
47590;DHT22;33316;52.298;9.056;2022-09-27T09:45:48;13.10;83.20
47590;DHT22;33316;52.298;9.056;2022-09-27T09:48:23;13.20;83.00
47590;DHT22;33316;52.298;9.056;2022-09-27T09:50:56;13.20;82.20
47590;DHT22;33316;52.298;9.056;2022-09-27T09:53:37;13.20;82.10
47590;DHT22;33316;52.298;9.056;2022-09-27T09:56:09;13.20;82.00
47590;DHT22;33316;52.298;9.056;2022-09-27T09:58:45;13.10;82.00
47590;DHT22;33316;52.298;9.056;2022-09-27T10:01:17;13.10;81.80
47590;DHT22;33316;52.298;9.056;2022-09-27T10:03:44;13.10;81.70
47590;DHT22;33316;52.298;9.056;2022-09-27T10:06:12;13.10;81.60
47590;DHT22;33316;52.298;9.056;2022-09-27T10:08:40;13.10;81.80
47590;DHT22;33316;52.298;9.056;2022-09-27T10:11:17;13.10;82.10
47590;DHT22;33316;52.298;9.056;2022-09-27T10:13:46;13.10;82.40
47590;DHT22;33316;52.298;9.056;2022-09-27T10:16:15;13.00;82.60
47590;DHT22;33316;52.298;9.056;2022-09-27T10:18:43;13.00;83.10
47590;DHT22;33316;52.298;9.056;2022-09-27T10:21:13;13.00;83.60
47590;DHT22;33316;52.298;9.056;2022-09-27T10:24:00;13.00;83.70
47590;DHT22;33316;52.298;9.056;2022-09-27T10:26:29;13.00;84.00
47590;DHT22;33316;52.298;9.056;2022-09-27T10:28:57;13.00;84.20
47590;DHT22;33316;52.298;9.056;2022-09-27T10:31:39;13.00;84.30
47590;DHT22;33316;52.298;9.056;2022-09-27T10:34:18;13.00;84.40
47590;DHT22;33316;52.298;9.056;2022-09-27T10:36:45;13.10;84.50
47590;DHT22;33316;52.298;9.056;2022-09-27T10:39:27;13.10;84.50
47590;DHT22;33316;52.298;9.056;2022-09-27T10:41:54;13.10;84.50
47590;DHT22;33316;52.298;9.056;2022-09-27T10:44:26;13.00;84.10
47590;DHT22;33316;52.298;9.056;2022-09-27T10:46:55;13.00;83.60
47590;DHT22;33316;52.298;9.056;2022-09-27T10:49:26;13.00;83.70
47590;DHT22;33316;52.298;9.056;2022-09-27T10:51:55;13.00;83.60
47590;DHT22;33316;52.298;9.056;2022-09-27T10:54:25;13.00;83.70
47590;DHT22;33316;52.298;9.056;2022-09-27T10:56:55;13.00;84.00
47590;DHT22;33316;52.298;9.056;2022-09-27T10:59:25;13.10;84.30
47590;DHT22;33316;52.298;9.056;2022-09-27T11:01:52;13.20;84.50
47590;DHT22;33316;52.298;9.056;2022-09-27T11:04:23;13.20;84.30
47590;DHT22;33316;52.298;9.056;2022-09-27T11:06:51;13.30;84.30
47590;DHT22;33316;52.298;9.056;2022-09-27T11:09:22;13.40;84.20
47590;DHT22;33316;52.298;9.056;2022-09-27T11:12:04;13.40;83.80
47590;DHT22;33316;52.298;9.056;2022-09-27T11:14:33;13.50;83.80
47590;DHT22;33316;52.298;9.056;2022-09-27T11:17:12;13.50;83.80
47590;DHT22;33316;52.298;9.056;2022-09-27T11:19:52;13.60;83.30
47590;DHT22;33316;52.298;9.056;2022-09-27T11:22:39;13.60;82.10
47590;DHT22;33316;52.298;9.056;2022-09-27T11:25:17;13.50;80.20
47590;DHT22;33316;52.298;9.056;2022-09-27T11:27:56;13.40;79.70
47590;DHT22;33316;52.298;9.056;2022-09-27T11:30:30;13.30;79.80
47590;DHT22;33316;52.298;9.056;2022-09-27T11:33:19;13.20;80.00
47590;DHT22;33316;52.298;9.056;2022-09-27T11:35:56;13.00;80.20
47590;DHT22;33316;52.298;9.056;2022-09-27T11:38:30;13.00;81.00
47590;DHT22;33316;52.298;9.056;2022-09-27T11:41:07;12.90;81.40
47590;DHT22;33316;52.298;9.056;2022-09-27T11:43:59;12.90;81.80
47590;DHT22;33316;52.298;9.056;2022-09-27T11:46:34;12.90;82.40
47590;DHT22;33316;52.298;9.056;2022-09-27T11:49:21;12.90;82.80
47590;DHT22;33316;52.298;9.056;2022-09-27T11:52:07;12.90;83.00
47590;DHT22;33316;52.298;9.056;2022-09-27T11:54:51;12.90;83.20
47590;DHT22;33316;52.298;9.056;2022-09-27T11:57:24;12.80;83.10
47590;DHT22;33316;52.298;9.056;2022-09-27T12:00:08;12.80;83.40
47590;DHT22;33316;52.298;9.056;2022-09-27T12:03:00;12.80;83.60
47590;DHT22;33316;52.298;9.056;2022-09-27T12:05:37;12.80;83.40
47590;DHT22;33316;52.298;9.056;2022-09-27T12:08:22;12.80;83.50
47590;DHT22;33316;52.298;9.056;2022-09-27T12:10:56;12.80;83.80
47590;DHT22;33316;52.298;9.056;2022-09-27T12:13:32;12.90;84.10
47590;DHT22;33316;52.298;9.056;2022-09-27T12:16:00;12.90;84.20
47590;DHT22;33316;52.298;9.056;2022-09-27T12:18:32;12.90;84.30
47590;DHT22;33316;52.298;9.056;2022-09-27T12:21:03;12.90;84.40
47590;DHT22;33316;52.298;9.056;2022-09-27T12:23:37;12.90;83.70
47590;DHT22;33316;52.298;9.056;2022-09-27T12:26:07;12.90;84.50
47590;DHT22;33316;52.298;9.056;2022-09-27T12:28:38;12.90;84.40
47590;DHT22;33316;52.298;9.056;2022-09-27T12:31:14;12.90;84.40
47590;DHT22;33316;52.298;9.056;2022-09-27T12:33:47;13.00;84.40
47590;DHT22;33316;52.298;9.056;2022-09-27T12:36:17;13.00;84.60
47590;DHT22;33316;52.298;9.056;2022-09-27T12:38:49;13.00;84.80
47590;DHT22;33316;52.298;9.056;2022-09-27T12:41:20;13.00;84.90
47590;DHT22;33316;52.298;9.056;2022-09-27T12:43:49;13.00;84.70
47590;DHT22;33316;52.298;9.056;2022-09-27T12:46:22;13.10;84.90
47590;DHT22;33316;52.298;9.056;2022-09-27T12:49:04;13.00;85.00
47590;DHT22;33316;52.298;9.056;2022-09-27T12:51:36;13.00;85.00
47590;DHT22;33316;52.298;9.056;2022-09-27T12:54:22;13.00;84.90
47590;DHT22;33316;52.298;9.056;2022-09-27T12:56:58;13.00;84.70
47590;DHT22;33316;52.298;9.056;2022-09-27T12:59:45;13.00;84.70
47590;DHT22;33316;52.298;9.056;2022-09-27T13:02:34;13.00;84.90
47590;DHT22;33316;52.298;9.056;2022-09-27T13:05:30;13.00;85.20
47590;DHT22;33316;52.298;9.056;2022-09-27T13:08:14;13.00;85.10
47590;DHT22;33316;52.298;9.056;2022-09-27T13:10:51;13.00;85.00
47590;DHT22;33316;52.298;9.056;2022-09-27T13:13:22;13.10;85.20
47590;DHT22;33316;52.298;9.056;2022-09-27T13:15:55;13.10;85.30
47590;DHT22;33316;52.298;9.056;2022-09-27T13:18:31;13.10;85.40
47590;DHT22;33316;52.298;9.056;2022-09-27T13:24:44;13.10;85.50
47590;DHT22;33316;52.298;9.056;2022-09-27T13:27:36;13.20;85.40
47590;DHT22;33316;52.298;9.056;2022-09-27T13:33:41;13.20;85.40
47590;DHT22;33316;52.298;9.056;2022-09-27T13:36:29;13.20;85.30
47590;DHT22;33316;52.298;9.056;2022-09-27T13:39:05;13.20;85.20
47590;DHT22;33316;52.298;9.056;2022-09-27T13:41:59;13.10;85.00
47590;DHT22;33316;52.298;9.056;2022-09-27T13:44:34;13.10;85.00
47590;DHT22;33316;52.298;9.056;2022-09-27T13:47:18;13.00;85.00
47590;DHT22;33316;52.298;9.056;2022-09-27T13:49:51;13.00;84.60
47590;DHT22;33316;52.298;9.056;2022-09-27T13:52:24;12.90;83.50
47590;DHT22;33316;52.298;9.056;2022-09-27T13:54:53;12.70;82.70
47590;DHT22;33316;52.298;9.056;2022-09-27T13:57:41;12.60;82.90
47590;DHT22;33316;52.298;9.056;2022-09-27T14:00:11;12.50;82.30
47590;DHT22;33316;52.298;9.056;2022-09-27T14:02:44;12.40;82.60
47590;DHT22;33316;52.298;9.056;2022-09-27T14:05:19;12.20;82.70
47590;DHT22;33316;52.298;9.056;2022-09-27T14:07:48;12.20;83.10
47590;DHT22;33316;52.298;9.056;2022-09-27T14:10:19;12.10;83.20
47590;DHT22;33316;52.298;9.056;2022-09-27T14:12:49;12.10;83.50
47590;DHT22;33316;52.298;9.056;2022-09-27T14:15:20;12.00;83.80
47590;DHT22;33316;52.298;9.056;2022-09-27T14:17:48;12.00;84.00
47590;DHT22;33316;52.298;9.056;2022-09-27T14:20:35;11.90;84.30
47590;DHT22;33316;52.298;9.056;2022-09-27T14:23:03;11.90;84.60
47590;DHT22;33316;52.298;9.056;2022-09-27T14:25:30;11.90;85.60
47590;DHT22;33316;52.298;9.056;2022-09-27T14:27:58;11.90;85.00
47590;DHT22;33316;52.298;9.056;2022-09-27T14:30:27;11.90;85.30
47590;DHT22;33316;52.298;9.056;2022-09-27T14:32:55;11.90;85.40
47590;DHT22;33316;52.298;9.056;2022-09-27T14:35:25;11.90;85.60
47590;DHT22;33316;52.298;9.056;2022-09-27T14:38:12;11.90;85.80
47590;DHT22;33316;52.298;9.056;2022-09-27T14:40:42;11.90;85.90
47590;DHT22;33316;52.298;9.056;2022-09-27T14:43:16;11.90;86.10
47590;DHT22;33316;52.298;9.056;2022-09-27T14:45:45;12.00;86.20
47590;DHT22;33316;52.298;9.056;2022-09-27T14:48:22;12.00;86.20
47590;DHT22;33316;52.298;9.056;2022-09-27T14:50:53;12.00;86.20
47590;DHT22;33316;52.298;9.056;2022-09-27T14:53:26;12.00;86.20
47590;DHT22;33316;52.298;9.056;2022-09-27T14:55:53;12.00;86.20
47590;DHT22;33316;52.298;9.056;2022-09-27T14:58:22;12.10;86.30
47590;DHT22;33316;52.298;9.056;2022-09-27T15:00:49;12.10;86.30
47590;DHT22;33316;52.298;9.056;2022-09-27T15:03:21;12.20;86.40
47590;DHT22;33316;52.298;9.056;2022-09-27T15:05:50;12.20;86.40
47590;DHT22;33316;52.298;9.056;2022-09-27T15:08:19;12.30;86.40
47590;DHT22;33316;52.298;9.056;2022-09-27T15:10:49;12.40;86.60
47590;DHT22;33316;52.298;9.056;2022-09-27T15:13:17;12.40;86.60
47590;DHT22;33316;52.298;9.056;2022-09-27T15:15:46;12.50;86.70
47590;DHT22;33316;52.298;9.056;2022-09-27T15:18:32;12.60;86.80
47590;DHT22;33316;52.298;9.056;2022-09-27T15:21:00;12.70;87.00
47590;DHT22;33316;52.298;9.056;2022-09-27T15:23:28;12.70;86.60
47590;DHT22;33316;52.298;9.056;2022-09-27T15:25:59;12.70;86.50
47590;DHT22;33316;52.298;9.056;2022-09-27T15:28:28;12.80;86.40
47590;DHT22;33316;52.298;9.056;2022-09-27T15:30:57;12.80;86.20
47590;DHT22;33316;52.298;9.056;2022-09-27T15:33:25;12.80;86.10
47590;DHT22;33316;52.298;9.056;2022-09-27T15:35:54;12.80;86.10
47590;DHT22;33316;52.298;9.056;2022-09-27T15:38:24;12.80;86.00
47590;DHT22;33316;52.298;9.056;2022-09-27T15:41:03;12.80;85.90
47590;DHT22;33316;52.298;9.056;2022-09-27T15:43:32;12.80;85.70
47590;DHT22;33316;52.298;9.056;2022-09-27T15:46:03;12.80;85.70
47590;DHT22;33316;52.298;9.056;2022-09-27T15:48:32;12.80;85.40
47590;DHT22;33316;52.298;9.056;2022-09-27T15:51:00;12.80;85.20
47590;DHT22;33316;52.298;9.056;2022-09-27T15:53:42;12.80;85.10
47590;DHT22;33316;52.298;9.056;2022-09-27T15:56:12;12.80;84.80
47590;DHT22;33316;52.298;9.056;2022-09-27T15:58:40;12.70;84.80
47590;DHT22;33316;52.298;9.056;2022-09-27T16:01:18;12.70;84.90
47590;DHT22;33316;52.298;9.056;2022-09-27T16:03:46;12.70;85.00
47590;DHT22;33316;52.298;9.056;2022-09-27T16:06:13;12.70;85.00
47590;DHT22;33316;52.298;9.056;2022-09-27T16:08:40;12.70;85.00
47590;DHT22;33316;52.298;9.056;2022-09-27T16:11:13;12.70;85.00